sensor_id;sensor_type;location;lat;lon;timestamp;pressure;altitude;pressure_sealevel;temperature;humidity
70445;BME280;57902;49.638;11.070;2023-03-11T00:00:27;96752.34;;;1.72;81.59
70445;BME280;57902;49.638;11.070;2023-03-11T00:02:58;96756.63;;;1.70;79.71
70445;BME280;57902;49.638;11.070;2023-03-11T00:05:30;96770.97;;;1.71;78.82
70445;BME280;57902;49.638;11.070;2023-03-11T00:07:57;96766.84;;;1.66;79.71
70445;BME280;57902;49.638;11.070;2023-03-11T00:10:29;96769.31;;;1.70;80.43
70445;BME280;57902;49.638;11.070;2023-03-11T00:12:57;96776.88;;;1.73;78.92
70445;BME280;57902;49.638;11.070;2023-03-11T00:15:26;96779.44;;;1.73;78.12
70445;BME280;57902;49.638;11.070;2023-03-11T00:17:53;96794.78;;;1.66;79.15
70445;BME280;57902;49.638;11.070;2023-03-11T00:22:52;96803.16;;;1.72;77.42
70445;BME280;57902;49.638;11.070;2023-03-11T00:25:20;96810.75;;;1.74;77.34
70445;BME280;57902;49.638;11.070;2023-03-11T00:27:47;96820.09;;;1.72;77.73
70445;BME280;57902;49.638;11.070;2023-03-11T00:30:15;96819.34;;;1.67;77.90
70445;BME280;57902;49.638;11.070;2023-03-11T00:32:42;96812.53;;;1.67;77.16
70445;BME280;57902;49.638;11.070;2023-03-11T00:35:14;96814.19;;;1.70;76.26
70445;BME280;57902;49.638;11.070;2023-03-11T00:37:45;96814.25;;;1.67;76.04
70445;BME280;57902;49.638;11.070;2023-03-11T00:40:17;96806.69;;;1.64;76.51
70445;BME280;57902;49.638;11.070;2023-03-11T00:42:44;96805.84;;;1.65;75.34
70445;BME280;57902;49.638;11.070;2023-03-11T00:45:12;96840.53;;;1.64;75.86
70445;BME280;57902;49.638;11.070;2023-03-11T00:47:38;96835.47;;;1.64;76.06
70445;BME280;57902;49.638;11.070;2023-03-11T00:50:06;96842.28;;;1.62;75.76
70445;BME280;57902;49.638;11.070;2023-03-11T00:52:39;96842.34;;;1.59;75.69
70445;BME280;57902;49.638;11.070;2023-03-11T00:55:06;96848.34;;;1.53;75.61
70445;BME280;57902;49.638;11.070;2023-03-11T00:57:32;96860.25;;;1.51;77.90
70445;BME280;57902;49.638;11.070;2023-03-11T00:59:59;96849.22;;;1.51;76.70
70445;BME280;57902;49.638;11.070;2023-03-11T01:02:25;96862.81;;;1.48;76.91
70445;BME280;57902;49.638;11.070;2023-03-11T01:04:55;96870.28;;;1.59;76.54
70445;BME280;57902;49.638;11.070;2023-03-11T01:07:22;96883.88;;;1.55;77.54
70445;BME280;57902;49.638;11.070;2023-03-11T01:09:49;96896.66;;;1.50;75.75
70445;BME280;57902;49.638;11.070;2023-03-11T01:12:15;96911.03;;;1.51;76.11
70445;BME280;57902;49.638;11.070;2023-03-11T01:14:41;96898.38;;;1.48;76.68
70445;BME280;57902;49.638;11.070;2023-03-11T01:17:08;96900.88;;;1.51;76.06
70445;BME280;57902;49.638;11.070;2023-03-11T01:19:35;96902.63;;;1.46;77.12
70445;BME280;57902;49.638;11.070;2023-03-11T01:22:01;96907.72;;;1.46;77.35
70445;BME280;57902;49.638;11.070;2023-03-11T01:24:28;96913.66;;;1.45;76.91
70445;BME280;57902;49.638;11.070;2023-03-11T01:26:54;96916.16;;;1.50;76.71
70445;BME280;57902;49.638;11.070;2023-03-11T01:29:21;96923.69;;;1.54;76.40
70445;BME280;57902;49.638;11.070;2023-03-11T01:31:47;96916.13;;;1.51;76.71
70445;BME280;57902;49.638;11.070;2023-03-11T01:34:16;96922.97;;;1.45;77.88
70445;BME280;57902;49.638;11.070;2023-03-11T01:36:43;96917.06;;;1.44;78.15
70445;BME280;57902;49.638;11.070;2023-03-11T01:39:09;96923.00;;;1.43;76.86
70445;BME280;57902;49.638;11.070;2023-03-11T01:41:36;96933.13;;;1.46;76.90
70445;BME280;57902;49.638;11.070;2023-03-11T01:44:02;96925.44;;;1.49;76.90
70445;BME280;57902;49.638;11.070;2023-03-11T01:49:25;96933.91;;;1.48;76.67
70445;BME280;57902;49.638;11.070;2023-03-11T01:51:56;96939.00;;;1.48;76.71
70445;BME280;57902;49.638;11.070;2023-03-11T01:54:30;96937.47;;;1.39;76.78
70445;BME280;57902;49.638;11.070;2023-03-11T01:57:01;96943.47;;;1.34;78.42
70445;BME280;57902;49.638;11.070;2023-03-11T01:59:32;96949.25;;;1.42;77.98
70445;BME280;57902;49.638;11.070;2023-03-11T02:04:42;96958.59;;;1.40;77.87
70445;BME280;57902;49.638;11.070;2023-03-11T02:07:09;96958.47;;;1.48;78.05
70445;BME280;57902;49.638;11.070;2023-03-11T02:09:37;96956.06;;;1.40;78.37
70445;BME280;57902;49.638;11.070;2023-03-11T02:12:04;96962.91;;;1.35;78.96
70445;BME280;57902;49.638;11.070;2023-03-11T02:14:33;96973.06;;;1.35;78.92
70445;BME280;57902;49.638;11.070;2023-03-11T02:17:02;96965.47;;;1.32;78.63
70445;BME280;57902;49.638;11.070;2023-03-11T02:22:09;96961.31;;;1.28;79.21
70445;BME280;57902;49.638;11.070;2023-03-11T02:24:46;96959.69;;;1.24;79.56
70445;BME280;57902;49.638;11.070;2023-03-11T02:27:17;96957.09;;;1.28;79.53
70445;BME280;57902;49.638;11.070;2023-03-11T02:29:46;96961.31;;;1.28;79.83
70445;BME280;57902;49.638;11.070;2023-03-11T02:32:15;96953.75;;;1.23;80.23
70445;BME280;57902;49.638;11.070;2023-03-11T02:34:56;96952.13;;;1.17;80.17
70445;BME280;57902;49.638;11.070;2023-03-11T02:37:22;96963.06;;;1.24;80.64
70445;BME280;57902;49.638;11.070;2023-03-11T02:39:53;96960.44;;;1.29;80.22
70445;BME280;57902;49.638;11.070;2023-03-11T02:42:25;96958.78;;;1.26;80.91
70445;BME280;57902;49.638;11.070;2023-03-11T02:45:20;96970.78;;;1.16;81.98
70445;BME280;57902;49.638;11.070;2023-03-11T02:47:48;96975.84;;;1.16;82.74
70445;BME280;57902;49.638;11.070;2023-03-11T02:50:17;96975.81;;;1.19;82.75
70445;BME280;57902;49.638;11.070;2023-03-11T02:52:47;96982.66;;;1.13;84.12
70445;BME280;57902;49.638;11.070;2023-03-11T02:55:15;96983.59;;;1.05;84.35
70445;BME280;57902;49.638;11.070;2023-03-11T02:57:43;96986.09;;;1.10;84.49
70445;BME280;57902;49.638;11.070;2023-03-11T03:00:11;96993.78;;;1.02;85.10
70445;BME280;57902;49.638;11.070;2023-03-11T03:02:41;96997.13;;;1.06;84.71
70445;BME280;57902;49.638;11.070;2023-03-11T03:05:09;97006.50;;;1.01;84.99
70445;BME280;57902;49.638;11.070;2023-03-11T03:07:36;97003.06;;;1.05;85.10
70445;BME280;57902;49.638;11.070;2023-03-11T03:10:04;97000.59;;;1.00;85.29
70445;BME280;57902;49.638;11.070;2023-03-11T03:12:31;97014.13;;;0.99;85.46
70445;BME280;57902;49.638;11.070;2023-03-11T03:14:57;97008.22;;;0.99;85.41
70445;BME280;57902;49.638;11.070;2023-03-11T03:17:24;97006.53;;;0.98;86.05
70445;BME280;57902;49.638;11.070;2023-03-11T03:19:50;97009.84;;;1.06;85.22
70445;BME280;57902;49.638;11.070;2023-03-11T03:22:17;97012.44;;;0.98;85.13
70445;BME280;57902;49.638;11.070;2023-03-11T03:24:43;97008.25;;;0.96;84.69
70445;BME280;57902;49.638;11.070;2023-03-11T03:27:10;97022.59;;;0.97;85.43
70445;BME280;57902;49.638;11.070;2023-03-11T03:29:36;97022.66;;;0.94;86.01
70445;BME280;57902;49.638;11.070;2023-03-11T03:32:03;97016.69;;;0.96;85.93
70445;BME280;57902;49.638;11.070;2023-03-11T03:34:30;97024.28;;;0.98;85.79
70445;BME280;57902;49.638;11.070;2023-03-11T03:36:56;97034.50;;;0.95;85.49
70445;BME280;57902;49.638;11.070;2023-03-11T03:39:23;97040.34;;;1.01;85.09
70445;BME280;57902;49.638;11.070;2023-03-11T03:41:49;97035.22;;;1.06;84.15
70445;BME280;57902;49.638;11.070;2023-03-11T03:44:16;97040.34;;;0.98;83.95
70445;BME280;57902;49.638;11.070;2023-03-11T03:46:42;97040.41;;;0.94;84.39
70445;BME280;57902;49.638;11.070;2023-03-11T03:49:09;97042.13;;;0.92;84.88
70445;BME280;57902;49.638;11.070;2023-03-11T03:51:35;97043.81;;;0.93;84.60
70445;BME280;57902;49.638;11.070;2023-03-11T03:54:02;97049.75;;;0.90;85.24
70445;BME280;57902;49.638;11.070;2023-03-11T03:56:28;97058.28;;;0.84;85.09
70445;BME280;57902;49.638;11.070;2023-03-11T03:58:55;97070.97;;;0.84;85.80
70445;BME280;57902;49.638;11.070;2023-03-11T04:01:21;97069.31;;;0.80;86.71
70445;BME280;57902;49.638;11.070;2023-03-11T04:03:48;97069.22;;;0.90;85.30
70445;BME280;57902;49.638;11.070;2023-03-11T04:06:23;97068.38;;;0.89;84.74
70445;BME280;57902;49.638;11.070;2023-03-11T04:08:50;97072.63;;;0.89;85.46
70445;BME280;57902;49.638;11.070;2023-03-11T04:11:18;97072.69;;;0.82;83.68
70445;BME280;57902;49.638;11.070;2023-03-11T04:13:44;97081.13;;;0.83;83.86
70445;BME280;57902;49.638;11.070;2023-03-11T04:16:16;97088.81;;;0.77;84.68
70445;BME280;57902;49.638;11.070;2023-03-11T04:18:42;97087.09;;;0.77;85.16
70445;BME280;57902;49.638;11.070;2023-03-11T04:21:09;97096.50;;;0.66;85.59
70445;BME280;57902;49.638;11.070;2023-03-11T04:23:36;97095.59;;;0.73;84.54
70445;BME280;57902;49.638;11.070;2023-03-11T04:26:02;97104.84;;;0.77;84.76
70445;BME280;57902;49.638;11.070;2023-03-11T04:28:29;97104.97;;;0.68;86.18
70445;BME280;57902;49.638;11.070;2023-03-11T04:30:56;97104.88;;;0.74;84.37
70445;BME280;57902;49.638;11.070;2023-03-11T04:33:22;97099.84;;;0.73;84.36
70445;BME280;57902;49.638;11.070;2023-03-11T04:35:49;97107.38;;;0.79;83.96
70445;BME280;57902;49.638;11.070;2023-03-11T04:38:15;97103.19;;;0.73;84.45
70445;BME280;57902;49.638;11.070;2023-03-11T04:40:42;97108.28;;;0.73;84.62
70445;BME280;57902;49.638;11.070;2023-03-11T04:43:08;97106.59;;;0.74;84.37
70445;BME280;57902;49.638;11.070;2023-03-11T04:45:39;97115.06;;;0.71;84.37
70445;BME280;57902;49.638;11.070;2023-03-11T04:48:06;97115.94;;;0.68;84.43
70445;BME280;57902;49.638;11.070;2023-03-11T04:50:32;97115.97;;;0.64;84.46
70445;BME280;57902;49.638;11.070;2023-03-11T04:52:59;97121.06;;;0.64;84.84
70445;BME280;57902;49.638;11.070;2023-03-11T04:55:26;97123.53;;;0.70;84.41
70445;BME280;57902;49.638;11.070;2023-03-11T04:57:52;97124.41;;;0.64;84.30
70445;BME280;57902;49.638;11.070;2023-03-11T05:00:19;97124.44;;;0.63;84.47
70445;BME280;57902;49.638;11.070;2023-03-11T05:02:48;97126.19;;;0.58;85.22
70445;BME280;57902;49.638;11.070;2023-03-11T05:05:14;97124.47;;;0.58;85.47
70445;BME280;57902;49.638;11.070;2023-03-11T05:07:41;97121.16;;;0.53;85.60
70445;BME280;57902;49.638;11.070;2023-03-11T05:10:08;97125.41;;;0.46;86.05
70445;BME280;57902;49.638;11.070;2023-03-11T05:12:39;97134.69;;;0.52;86.23
70445;BME280;57902;49.638;11.070;2023-03-11T05:15:06;97131.31;;;0.47;86.39
70445;BME280;57902;49.638;11.070;2023-03-11T05:17:32;97140.56;;;0.52;85.90
70445;BME280;57902;49.638;11.070;2023-03-11T05:19:59;97147.41;;;0.47;86.57
70445;BME280;57902;49.638;11.070;2023-03-11T05:22:28;97149.94;;;0.46;87.29
70445;BME280;57902;49.638;11.070;2023-03-11T05:24:56;97156.69;;;0.45;86.59
70445;BME280;57902;49.638;11.070;2023-03-11T05:27:23;97156.66;;;0.51;86.68
70445;BME280;57902;49.638;11.070;2023-03-11T05:29:50;97154.19;;;0.42;86.36
70445;BME280;57902;49.638;11.070;2023-03-11T05:32:16;97154.28;;;0.31;87.12
70445;BME280;57902;49.638;11.070;2023-03-11T05:34:44;97156.00;;;0.23;87.34
70445;BME280;57902;49.638;11.070;2023-03-11T05:37:11;97163.59;;;0.25;87.64
70445;BME280;57902;49.638;11.070;2023-03-11T05:39:40;97166.19;;;0.19;87.79
70445;BME280;57902;49.638;11.070;2023-03-11T05:42:08;97172.91;;;0.26;87.27
70445;BME280;57902;49.638;11.070;2023-03-11T05:44:37;97177.16;;;0.17;87.88
70445;BME280;57902;49.638;11.070;2023-03-11T05:47:03;97184.75;;;0.24;87.42
70445;BME280;57902;49.638;11.070;2023-03-11T05:49:30;97179.69;;;0.19;88.46
70445;BME280;57902;49.638;11.070;2023-03-11T05:51:56;97184.75;;;0.22;87.99
70445;BME280;57902;49.638;11.070;2023-03-11T05:54:24;97180.47;;;0.29;87.49
70445;BME280;57902;49.638;11.070;2023-03-11T05:56:51;97180.44;;;0.35;86.81
70445;BME280;57902;49.638;11.070;2023-03-11T05:59:18;97190.63;;;0.26;86.79
70445;BME280;57902;49.638;11.070;2023-03-11T06:01:45;97186.41;;;0.26;87.40
70445;BME280;57902;49.638;11.070;2023-03-11T06:04:11;97188.94;;;0.26;87.09
70445;BME280;57902;49.638;11.070;2023-03-11T06:06:39;97194.00;;;0.32;86.34
70445;BME280;57902;49.638;11.070;2023-03-11T06:09:11;97198.19;;;0.32;85.92
70445;BME280;57902;49.638;11.070;2023-03-11T06:11:37;97204.16;;;0.25;87.72
70445;BME280;57902;49.638;11.070;2023-03-11T06:14:11;97208.34;;;0.29;86.95
70445;BME280;57902;49.638;11.070;2023-03-11T06:16:39;97206.66;;;0.34;86.93
70445;BME280;57902;49.638;11.070;2023-03-11T06:19:06;97209.13;;;0.42;86.05
70445;BME280;57902;49.638;11.070;2023-03-11T06:21:38;97226.03;;;0.38;85.90
70445;BME280;57902;49.638;11.070;2023-03-11T06:24:05;97236.16;;;0.44;85.74
70445;BME280;57902;49.638;11.070;2023-03-11T06:26:31;97229.34;;;0.49;84.53
70445;BME280;57902;49.638;11.070;2023-03-11T06:28:58;97242.88;;;0.53;84.58
70445;BME280;57902;49.638;11.070;2023-03-11T06:31:26;97231.84;;;0.56;84.64
70445;BME280;57902;49.638;11.070;2023-03-11T06:33:54;97234.38;;;0.57;83.83
70445;BME280;57902;49.638;11.070;2023-03-11T06:36:24;97242.84;;;0.58;84.05
70445;BME280;57902;49.638;11.070;2023-03-11T06:38:53;97239.44;;;0.62;83.90
70445;BME280;57902;49.638;11.070;2023-03-11T06:41:20;97247.03;;;0.63;83.77
70445;BME280;57902;49.638;11.070;2023-03-11T06:43:46;97263.16;;;0.53;84.60
70445;BME280;57902;49.638;11.070;2023-03-11T06:46:21;97271.63;;;0.50;85.52
70445;BME280;57902;49.638;11.070;2023-03-11T06:48:48;97272.41;;;0.62;84.70
70445;BME280;57902;49.638;11.070;2023-03-11T06:51:18;97279.13;;;0.63;83.63
70445;BME280;57902;49.638;11.070;2023-03-11T06:53:51;97283.41;;;0.58;83.60
70445;BME280;57902;49.638;11.070;2023-03-11T06:56:19;97294.41;;;0.54;84.65
70445;BME280;57902;49.638;11.070;2023-03-11T06:58:48;97296.13;;;0.48;85.78
70445;BME280;57902;49.638;11.070;2023-03-11T07:01:16;97300.38;;;0.45;86.63
70445;BME280;57902;49.638;11.070;2023-03-11T07:04:00;97302.16;;;0.27;89.59
70445;BME280;57902;49.638;11.070;2023-03-11T07:06:27;97304.72;;;0.23;89.95
70445;BME280;57902;49.638;11.070;2023-03-11T07:08:54;97308.06;;;0.25;90.30
70445;BME280;57902;49.638;11.070;2023-03-11T07:11:23;97319.06;;;0.25;89.64
70445;BME280;57902;49.638;11.070;2023-03-11T07:13:50;97318.22;;;0.20;90.63
70445;BME280;57902;49.638;11.070;2023-03-11T07:16:19;97313.19;;;0.14;92.05
70445;BME280;57902;49.638;11.070;2023-03-11T07:18:54;97314.00;;;0.17;92.59
70445;BME280;57902;49.638;11.070;2023-03-11T07:21:21;97314.88;;;0.20;93.57
70445;BME280;57902;49.638;11.070;2023-03-11T07:23:56;97315.69;;;0.31;92.33
70445;BME280;57902;49.638;11.070;2023-03-11T07:26:23;97319.88;;;0.32;93.83
70445;BME280;57902;49.638;11.070;2023-03-11T07:28:50;97323.25;;;0.37;94.10
70445;BME280;57902;49.638;11.070;2023-03-11T07:31:20;97326.56;;;0.48;93.79
70445;BME280;57902;49.638;11.070;2023-03-11T07:33:49;97317.16;;;0.66;92.38
70445;BME280;57902;49.638;11.070;2023-03-11T07:36:18;97326.41;;;0.81;91.57
70445;BME280;57902;49.638;11.070;2023-03-11T07:38:46;97332.22;;;0.92;91.28
70445;BME280;57902;49.638;11.070;2023-03-11T07:41:14;97341.47;;;1.01;89.59
70445;BME280;57902;49.638;11.070;2023-03-11T07:43:47;97344.81;;;1.09;90.51
70445;BME280;57902;49.638;11.070;2023-03-11T07:46:16;97335.41;;;1.25;87.86
70445;BME280;57902;49.638;11.070;2023-03-11T07:48:44;97339.44;;;1.46;86.55
70445;BME280;57902;49.638;11.070;2023-03-11T07:51:16;97338.34;;;1.75;86.19
70445;BME280;57902;49.638;11.070;2023-03-11T07:53:44;97346.28;;;2.26;83.78
70445;BME280;57902;49.638;11.070;2023-03-11T07:56:12;97350.00;;;2.68;79.99
70445;BME280;57902;49.638;11.070;2023-03-11T07:58:39;97352.50;;;3.30;77.60
70445;BME280;57902;49.638;11.070;2023-03-11T08:01:08;97361.44;;;3.57;75.09
70445;BME280;57902;49.638;11.070;2023-03-11T08:03:36;97363.94;;;3.60;74.40
70445;BME280;57902;49.638;11.070;2023-03-11T08:06:20;97374.16;;;3.57;74.75
70445;BME280;57902;49.638;11.070;2023-03-11T08:08:48;97371.09;;;3.37;75.63
70445;BME280;57902;49.638;11.070;2023-03-11T08:11:15;97375.69;;;3.14;74.97
70445;BME280;57902;49.638;11.070;2023-03-11T08:13:43;97383.50;;;3.01;75.68
70445;BME280;57902;49.638;11.070;2023-03-11T08:16:14;97387.25;;;3.34;73.83
70445;BME280;57902;49.638;11.070;2023-03-11T08:18:41;97383.25;;;3.19;74.52
70445;BME280;57902;49.638;11.070;2023-03-11T08:21:11;97395.91;;;3.24;73.73
70445;BME280;57902;49.638;11.070;2023-03-11T08:23:38;97401.28;;;3.02;71.42
70445;BME280;57902;49.638;11.070;2023-03-11T08:26:06;97402.22;;;2.96;72.42
70445;BME280;57902;49.638;11.070;2023-03-11T08:28:33;97406.44;;;2.99;73.27
70445;BME280;57902;49.638;11.070;2023-03-11T08:31:00;97410.53;;;3.09;73.38
70445;BME280;57902;49.638;11.070;2023-03-11T08:33:27;97407.81;;;3.23;75.13
70445;BME280;57902;49.638;11.070;2023-03-11T08:35:53;97426.09;;;3.50;73.80
70445;BME280;57902;49.638;11.070;2023-03-11T08:38:20;97428.50;;;3.59;70.97
70445;BME280;57902;49.638;11.070;2023-03-11T08:40:48;97424.94;;;3.70;70.75
70445;BME280;57902;49.638;11.070;2023-03-11T08:43:14;97429.81;;;3.85;69.30
70445;BME280;57902;49.638;11.070;2023-03-11T08:45:41;97430.34;;;4.04;69.22
70445;BME280;57902;49.638;11.070;2023-03-11T08:48:09;97429.91;;;4.29;69.11
70445;BME280;57902;49.638;11.070;2023-03-11T08:50:39;97427.72;;;4.54;64.45
70445;BME280;57902;49.638;11.070;2023-03-11T08:53:19;97433.44;;;4.65;63.47
70445;BME280;57902;49.638;11.070;2023-03-11T08:55:46;97430.41;;;4.48;64.86
70445;BME280;57902;49.638;11.070;2023-03-11T08:58:13;97435.19;;;4.63;62.52
70445;BME280;57902;49.638;11.070;2023-03-11T09:00:39;97436.09;;;4.61;63.62
70445;BME280;57902;49.638;11.070;2023-03-11T09:03:06;97438.50;;;4.23;63.86
70445;BME280;57902;49.638;11.070;2023-03-11T09:05:34;97446.59;;;3.97;63.45
70445;BME280;57902;49.638;11.070;2023-03-11T09:08:01;97454.91;;;4.07;63.60
70445;BME280;57902;49.638;11.070;2023-03-11T09:10:31;97458.50;;;3.98;64.99
70445;BME280;57902;49.638;11.070;2023-03-11T09:12:57;97462.25;;;3.75;64.52
70445;BME280;57902;49.638;11.070;2023-03-11T09:15:24;97452.84;;;3.77;63.49
70445;BME280;57902;49.638;11.070;2023-03-11T09:17:50;97458.06;;;3.70;65.55
70445;BME280;57902;49.638;11.070;2023-03-11T09:20:18;97462.03;;;3.89;66.69
70445;BME280;57902;49.638;11.070;2023-03-11T09:22:44;97462.63;;;4.03;64.09
70445;BME280;57902;49.638;11.070;2023-03-11T09:25:12;97455.81;;;4.06;60.27
70445;BME280;57902;49.638;11.070;2023-03-11T09:27:38;97463.16;;;3.70;63.04
70445;BME280;57902;49.638;11.070;2023-03-11T09:30:08;97460.50;;;3.79;61.70
70445;BME280;57902;49.638;11.070;2023-03-11T09:32:35;97464.53;;;3.33;61.87
70445;BME280;57902;49.638;11.070;2023-03-11T09:35:03;97470.38;;;3.41;62.93
70445;BME280;57902;49.638;11.070;2023-03-11T09:37:30;97474.06;;;3.20;63.53
70445;BME280;57902;49.638;11.070;2023-03-11T09:39:56;97474.00;;;3.25;62.80
70445;BME280;57902;49.638;11.070;2023-03-11T09:42:56;97478.28;;;3.21;63.01
70445;BME280;57902;49.638;11.070;2023-03-11T09:45:29;97480.22;;;3.04;63.70
70445;BME280;57902;49.638;11.070;2023-03-11T09:50:52;97480.13;;;3.13;62.35
70445;BME280;57902;49.638;11.070;2023-03-11T09:56:09;97492.75;;;3.21;61.91
70445;BME280;57902;49.638;11.070;2023-03-11T10:01:30;97500.50;;;3.11;61.27
70445;BME280;57902;49.638;11.070;2023-03-11T10:04:07;97496.16;;;3.18;62.15
70445;BME280;57902;49.638;11.070;2023-03-11T10:06:37;97497.81;;;3.22;61.22
70445;BME280;57902;49.638;11.070;2023-03-11T10:20:24;97495.81;;;3.44;61.48
70445;BME280;57902;49.638;11.070;2023-03-11T10:23:06;97509.56;;;3.32;62.55
70445;BME280;57902;49.638;11.070;2023-03-11T10:25:56;97503.75;;;3.21;64.04
70445;BME280;57902;49.638;11.070;2023-03-11T10:29:09;97500.22;;;3.33;61.65
70445;BME280;57902;49.638;11.070;2023-03-11T10:31:51;97508.03;;;3.21;62.71
70445;BME280;57902;49.638;11.070;2023-03-11T10:34:25;97520.00;;;3.11;61.14
70445;BME280;57902;49.638;11.070;2023-03-11T10:37:01;97517.41;;;3.15;61.44
70445;BME280;57902;49.638;11.070;2023-03-11T10:39:31;97515.94;;;2.97;62.28
70445;BME280;57902;49.638;11.070;2023-03-11T10:42:03;97511.91;;;2.79;63.72
70445;BME280;57902;49.638;11.070;2023-03-11T10:44:35;97522.94;;;2.77;63.63
70445;BME280;57902;49.638;11.070;2023-03-11T10:47:02;97520.38;;;2.78;61.65
70445;BME280;57902;49.638;11.070;2023-03-11T10:49:29;97523.88;;;2.70;61.22
70445;BME280;57902;49.638;11.070;2023-03-11T10:51:56;97527.38;;;2.59;61.90
70445;BME280;57902;49.638;11.070;2023-03-11T10:54:35;97536.13;;;2.31;64.82
70445;BME280;57902;49.638;11.070;2023-03-11T10:57:18;97537.31;;;1.89;70.09
70445;BME280;57902;49.638;11.070;2023-03-11T11:00:00;97541.56;;;1.83;73.03
70445;BME280;57902;49.638;11.070;2023-03-11T11:02:30;97540.03;;;1.55;75.24
70445;BME280;57902;49.638;11.070;2023-03-11T11:07:42;97539.19;;;1.53;75.16
70445;BME280;57902;49.638;11.070;2023-03-11T11:12:53;97550.88;;;1.85;74.05
70445;BME280;57902;49.638;11.070;2023-03-11T11:18:01;97555.75;;;2.15;72.82
70445;BME280;57902;49.638;11.070;2023-03-11T11:20:29;97558.09;;;2.36;70.45
70445;BME280;57902;49.638;11.070;2023-03-11T11:22:59;97560.59;;;2.44;70.77
70445;BME280;57902;49.638;11.070;2023-03-11T11:25:36;97556.16;;;2.66;69.75
70445;BME280;57902;49.638;11.070;2023-03-11T11:28:18;97546.78;;;2.70;69.58
70445;BME280;57902;49.638;11.070;2023-03-11T11:31:05;97550.19;;;2.67;68.90
70445;BME280;57902;49.638;11.070;2023-03-11T11:33:46;97551.78;;;2.76;66.39
70445;BME280;57902;49.638;11.070;2023-03-11T11:36:15;97545.03;;;2.76;64.75
70445;BME280;57902;49.638;11.070;2023-03-11T11:38:41;97544.91;;;2.86;63.80
70445;BME280;57902;49.638;11.070;2023-03-11T11:41:13;97540.47;;;3.05;63.50
70445;BME280;57902;49.638;11.070;2023-03-11T11:46:40;97535.06;;;3.31;62.96
70445;BME280;57902;49.638;11.070;2023-03-11T11:49:17;97534.44;;;3.76;60.87
70445;BME280;57902;49.638;11.070;2023-03-11T11:51:57;97535.81;;;3.98;58.00
70445;BME280;57902;49.638;11.070;2023-03-11T11:55:06;97541.47;;;4.19;56.36
70445;BME280;57902;49.638;11.070;2023-03-11T11:57:38;97538.06;;;4.20;55.78
70445;BME280;57902;49.638;11.070;2023-03-11T12:00:16;97532.13;;;4.18;55.48
70445;BME280;57902;49.638;11.070;2023-03-11T12:03:05;97534.38;;;4.36;54.18
70445;BME280;57902;49.638;11.070;2023-03-11T12:05:44;97531.44;;;4.60;53.48
70445;BME280;57902;49.638;11.070;2023-03-11T12:08:30;97527.94;;;4.64;52.59
70445;BME280;57902;49.638;11.070;2023-03-11T12:11:07;97527.97;;;4.62;53.42
70445;BME280;57902;49.638;11.070;2023-03-11T12:17:02;97522.19;;;4.99;53.35
70445;BME280;57902;49.638;11.070;2023-03-11T12:19:38;97523.91;;;4.97;51.80
70445;BME280;57902;49.638;11.070;2023-03-11T12:25:36;97525.56;;;5.00;50.58
70445;BME280;57902;49.638;11.070;2023-03-11T12:30:47;97521.47;;;4.91;50.35
70445;BME280;57902;49.638;11.070;2023-03-11T12:33:25;97534.38;;;4.85;50.72
70445;BME280;57902;49.638;11.070;2023-03-11T12:35:55;97523.06;;;4.98;50.51
70445;BME280;57902;49.638;11.070;2023-03-11T12:38:29;97520.72;;;4.86;52.05
70445;BME280;57902;49.638;11.070;2023-03-11T12:41:05;97520.72;;;4.86;51.23
70445;BME280;57902;49.638;11.070;2023-03-11T12:53:53;97520.97;;;4.72;49.68
70445;BME280;57902;49.638;11.070;2023-03-11T13:02:11;97529.81;;;4.54;54.44
70445;BME280;57902;49.638;11.070;2023-03-11T13:04:58;97540.44;;;4.29;57.06
70445;BME280;57902;49.638;11.070;2023-03-11T13:10:33;97542.97;;;3.75;58.33
70445;BME280;57902;49.638;11.070;2023-03-11T13:13:01;97542.38;;;3.57;58.94
70445;BME280;57902;49.638;11.070;2023-03-11T13:15:38;97541.94;;;3.23;60.28
70445;BME280;57902;49.638;11.070;2023-03-11T13:23:19;97542.31;;;3.60;60.61
70445;BME280;57902;49.638;11.070;2023-03-11T13:45:06;97583.97;;;3.58;58.32
70445;BME280;57902;49.638;11.070;2023-03-11T13:47:34;97585.88;;;3.42;59.18
70445;BME280;57902;49.638;11.070;2023-03-11T13:50:08;97588.41;;;3.42;59.44
70445;BME280;57902;49.638;11.070;2023-03-11T13:52:41;97581.56;;;3.47;59.21
70445;BME280;57902;49.638;11.070;2023-03-11T13:55:33;97590.13;;;3.43;60.67
70445;BME280;57902;49.638;11.070;2023-03-11T13:58:13;97595.22;;;3.43;60.94
70445;BME280;57902;49.638;11.070;2023-03-11T14:00:47;97597.72;;;3.46;60.14
70445;BME280;57902;49.638;11.070;2023-03-11T14:03:16;97605.44;;;3.40;59.27
70445;BME280;57902;49.638;11.070;2023-03-11T14:05:49;97601.97;;;3.45;58.55
70445;BME280;57902;49.638;11.070;2023-03-11T14:08:27;97606.13;;;3.53;57.52
70445;BME280;57902;49.638;11.070;2023-03-11T14:13:45;97609.72;;;3.36;58.40
70445;BME280;57902;49.638;11.070;2023-03-11T14:18:59;97607.25;;;3.28;59.98
70445;BME280;57902;49.638;11.070;2023-03-11T14:21:35;97617.31;;;3.41;58.82
70445;BME280;57902;49.638;11.070;2023-03-11T14:24:02;97620.78;;;3.35;57.93
70445;BME280;57902;49.638;11.070;2023-03-11T14:26:31;97621.63;;;3.34;58.27
70445;BME280;57902;49.638;11.070;2023-03-11T14:29:06;97611.28;;;3.46;58.39
70445;BME280;57902;49.638;11.070;2023-03-11T14:31:36;97615.38;;;3.61;56.40
70445;BME280;57902;49.638;11.070;2023-03-11T14:34:13;97610.50;;;3.43;57.69
70445;BME280;57902;49.638;11.070;2023-03-11T14:36:41;97622.44;;;3.38;58.45
70445;BME280;57902;49.638;11.070;2023-03-11T14:42:03;97628.16;;;3.55;56.54
70445;BME280;57902;49.638;11.070;2023-03-11T14:44:34;97623.97;;;3.54;57.08
70445;BME280;57902;49.638;11.070;2023-03-11T14:47:31;97628.13;;;3.61;57.25
70445;BME280;57902;49.638;11.070;2023-03-11T14:49:59;97628.91;;;3.65;55.09
70445;BME280;57902;49.638;11.070;2023-03-11T14:54:56;97631.34;;;3.74;55.25
70445;BME280;57902;49.638;11.070;2023-03-11T14:57:59;97635.53;;;3.80;54.75
70445;BME280;57902;49.638;11.070;2023-03-11T15:00:23;97634.66;;;3.82;55.51